Time;durP1;ratioP1;P1;durP2;ratioP2;P2;SDS_P1;SDS_P2;PMS_P1;PMS_P2;Temp;Humidity;BMP_temperature;BMP_pressure;BME280_temperature;BME280_humidity;BME280_pressure;Samples;Min_cycle;Max_cycle;Signal;HPM_P1;HPM_P2
2022/12/07 19:22:32;;;;;;;;;;;;;;;;;;352564;27;1368;-84
2022/12/07 19:22:42;;;;;;;;;;;;;;;;;;352758;28;1178;-89
2022/12/07 19:22:52;;;;;;;;;;;;;;;;;;352568;28;1127;-88
2022/12/07 19:23:02;;;;;;;;;;;;;;;;;;352603;28;979;-88
2022/12/07 19:23:13;;;;;;;;;;;;;;;;;;352419;28;1495;-88
2022/12/07 19:23:24;;;;;;;;;;;;;;;;;;352458;28;1606;-87
2022/12/07 19:23:34;;;;;;;;;;;;;;;;;;352601;28;983;-87
2022/12/07 19:23:44;;;;;;;;;;;;;;;;;;352542;28;829;-86
2022/12/07 19:23:55;;;;;;;;;;;;;;;;;;352569;28;909;-78
2022/12/07 19:24:05;;;;;;;;;;;;;;;;;;352361;27;893;-85
2022/12/07 19:24:16;;;;;;;;;;;;;;;;;;352509;27;1008;-86
2022/12/07 19:24:27;;;;;;;;;;;;;;;;;;352527;28;980;-85
2022/12/07 19:24:37;;;;;;;;;;;;;;;;;;352553;27;928;-89
2022/12/07 19:24:49;;;;;;;;;;;;;;;;;;352536;28;988;-87
2022/12/07 19:24:59;;;;;;;;;;;;;;;;;;352582;27;814;-83
2022/12/07 19:25:09;;;;;;;;;;;;;;;;;;352532;28;940;-81
2022/12/07 19:25:19;;;;;;;;;;;;;;;;;;351299;27;1717;-83
2022/12/07 19:25:30;;;;;;;;;;;;;;;;;;353534;28;992;-84
2022/12/07 19:25:40;;;;;;;;;;;;;;;;;;353959;28;829;-86
2022/12/07 19:25:53;;;;;;;;;;;;;;;;;;353914;28;1039;-80
2022/12/07 19:26:03;;;;;;;;;;;;;;;;;;353715;27;987;-79
2022/12/07 19:26:13;;;;;;;;;;;;;;;;;;351152;28;1433;-82
2022/12/07 19:26:23;;;;;;;;;;;;;;;;;;351031;28;1014;-84
2022/12/07 19:26:34;;;;;;;;;;;;;;;;;;351020;28;1038;-85
2022/12/07 19:26:44;;;;;;;;;;;;;;;;;;351019;28;1003;-85
2022/12/07 19:26:55;;;;;;;;;;;;;;;;;;351177;27;1008;-83
2022/12/07 19:27:05;;;;;;;;;;;;;;;;;;351191;28;925;-85
2022/12/07 19:27:16;;;;;;;;;;;;;;;;;;350869;28;1350;-81
2022/12/07 19:27:26;;;;;;;;;;;;;;;;;;352536;28;1011;-83
2022/12/07 19:27:36;;;;;;;;;;;;;;;;;;352579;28;1181;-83
2022/12/07 19:27:46;;;;;;;;;;;;;;;;;;352541;27;968;-86
2022/12/07 19:27:57;;;;;;;;;;;;;;;;;;352556;28;984;-87
2022/12/07 19:28:07;;;;;;;;;;;;;;;;;;352574;28;921;-84
2022/12/07 19:28:17;;;;;;;;;;;;;;;;;;352518;28;837;-86
2022/12/07 19:28:27;;;;;;;;;;;;;;;;;;352524;28;905;-86
2022/12/07 19:28:38;;;;;;;;;;;;;;;;;;352606;27;896;-88
2022/12/07 19:28:48;;;;;;;;;;;;;;;;;;351378;28;1757;-89
2022/12/07 19:28:58;;;;;;;;;;;;;;;;;;351134;28;1302;-89
2022/12/07 19:29:09;;;;;;;;;;;;;;;;;;351436;28;1611;-90
2022/12/07 19:29:19;;;;;;;;;;;;;;;;;;352033;28;944;-88
2022/12/07 19:29:32;;;;;;;;;;;;;;;;;;353780;28;1043;-87
2022/12/07 19:29:43;;;;;;;;;;;;;;;;;;353846;28;858;-86
2022/12/07 19:29:53;;;;;;;;;;;;;;;;;;353857;28;1013;-86
2022/12/07 19:30:04;;;;;;;;;;;;;;;;;;352543;28;1704;-88
2022/12/07 19:30:15;;;;;;;;;;;;;;;;;;351253;28;1720;-88
2022/12/07 19:30:25;;;;;;;;;;;;;;;;;;351075;28;858;-87
2022/12/07 19:30:36;;;;;;;;;;;;;;;;;;351087;28;847;-87
2022/12/07 19:30:46;;;;;;;;;;;;;;;;;;351148;28;929;-86
2022/12/07 19:30:56;;;;;;;;;;;;;;;;;;351127;28;1004;-87
2022/12/07 19:31:07;;;;;;;;;;;;;;;;;;350671;28;1327;-87
2022/12/07 19:31:17;;;;;;;;;;;;;;;;;;351664;28;1913;-88
2022/12/07 19:31:28;;;;;;;;;;;;;;;;;;351184;28;972;-89
2022/12/07 19:31:38;;;;;;;;;;;;;;;;;;351011;27;1529;-86
2022/12/07 19:31:48;;;;;;;;;;;;;;;;;;351768;28;1469;-89
2022/12/07 19:31:59;;;;;;;;;;;;;;;;;;352349;28;1586;-86
2022/12/07 19:32:10;;;;;;;;;;;;;;;;;;350868;28;1693;-88
2022/12/07 19:32:20;;;;;;;;;;;;;;;;;;352036;28;1752;-88
2022/12/07 19:32:31;;;;;;;;;;;;;;;;;;351723;28;1129;-89
2022/12/07 19:32:41;;;;;;;;;;;;;;;;;;351150;28;992;-88
2022/12/07 19:32:51;;;;;;;;;;;;;;;;;;351156;28;988;-88
2022/12/07 19:33:01;;;;;;;;;;;;;;;;;;351107;28;1032;-89
2022/12/07 19:33:12;;;;;;;;;;;;;;;;;;351211;28;793;-89
2022/12/07 19:33:22;;;;;;;;;;;;;;;;;;351020;28;1867;-89
2022/12/07 19:33:32;;;;;;;;;;;;;;;;;;352120;28;1664;-89
2022/12/07 19:33:42;;;;;;;;;;;;;;;;;;351141;28;893;-89
2022/12/07 19:33:53;;;;;;;;;;;;;;;;;;351003;28;1321;-89
2022/12/07 19:34:07;;;;;;;;;;;;;;;;;;351031;28;1202;-87
2022/12/07 19:34:17;;;;;;;;;;;;;;;;;;351687;28;933;-88
2022/12/07 19:34:27;;;;;;;;;;;;;;;;;;353907;28;948;-88
2022/12/07 19:34:38;;;;;;;;;;;;;;;;;;353999;28;845;-88
2022/12/07 19:34:49;;;;;;;;;;;;;;;;;;353949;28;983;-88
2022/12/07 19:34:59;;;;;;;;;;;;;;;;;;353988;28;979;-88
2022/12/07 19:35:09;;;;;;;;;;;;;;;;;;353950;28;928;-88
2022/12/07 19:35:20;;;;;;;;;;;;;;;;;;353979;28;917;-89
2022/12/07 19:35:30;;;;;;;;;;;;;;;;;;353979;28;1036;-88
2022/12/07 19:35:40;;;;;;;;;;;;;;;;;;353996;28;990;-88
2022/12/07 19:35:50;;;;;;;;;;;;;;;;;;353956;28;888;-87
2022/12/07 19:36:00;;;;;;;;;;;;;;;;;;354052;28;909;-88
2022/12/07 19:36:11;;;;;;;;;;;;;;;;;;353982;28;900;-88
2022/12/07 19:36:21;;;;;;;;;;;;;;;;;;353965;27;801;-88
2022/12/07 19:36:31;;;;;;;;;;;;;;;;;;353858;28;928;-88
2022/12/07 19:36:42;;;;;;;;;;;;;;;;;;353867;28;960;-88
2022/12/07 19:36:52;;;;;;;;;;;;;;;;;;353908;28;932;-89
2022/12/07 19:37:02;;;;;;;;;;;;;;;;;;353855;28;968;-88
2022/12/07 19:37:13;;;;;;;;;;;;;;;;;;353938;28;884;-87
2022/12/07 19:37:23;;;;;;;;;;;;;;;;;;353941;28;924;-89
2022/12/07 19:37:33;;;;;;;;;;;;;;;;;;353868;28;956;-89
2022/12/07 19:37:44;;;;;;;;;;;;;;;;;;353924;28;853;-90
2022/12/07 19:37:54;;;;;;;;;;;;;;;;;;353862;28;1051;-90
2022/12/07 19:38:04;;;;;;;;;;;;;;;;;;353945;28;964;-90
2022/12/07 19:38:14;;;;;;;;;;;;;;;;;;353759;28;1110;-89
2022/12/07 19:38:24;;;;;;;;;;;;;;;;;;353919;28;797;-90
2022/12/07 19:38:35;;;;;;;;;;;;;;;;;;353925;28;968;-91
2022/12/07 19:38:45;;;;;;;;;;;;;;;;;;354050;28;948;-91
2022/12/07 19:38:55;;;;;;;;;;;;;;;;;;354026;28;928;-87
2022/12/07 19:39:07;;;;;;;;;;;;;;;;;;354117;28;951;-82
2022/12/07 19:39:17;;;;;;;;;;;;;;;;;;353922;28;948;-83
2022/12/07 19:39:28;;;;;;;;;;;;;;;;;;353873;28;1039;-81
2022/12/07 19:39:39;;;;;;;;;;;;;;;;;;351881;28;1631;-81
2022/12/07 19:39:50;;;;;;;;;;;;;;;;;;352526;28;975;-82
2022/12/07 19:40:01;;;;;;;;;;;;;;;;;;352490;28;972;-82
2022/12/07 19:40:11;;;;;;;;;;;;;;;;;;352551;28;897;-82
2022/12/07 19:40:21;;;;;;;;;;;;;;;;;;351785;28;1753;-82
2022/12/07 19:40:32;;;;;;;;;;;;;;;;;;352421;28;1469;-84
2022/12/07 19:40:42;;;;;;;;;;;;;;;;;;351967;28;1455;-86
2022/12/07 19:40:52;;;;;;;;;;;;;;;;;;351190;28;1653;-84
2022/12/07 19:41:03;;;;;;;;;;;;;;;;;;350963;28;1003;-83
2022/12/07 19:41:42;;;;;;;;;;;;;;;;;;351050;28;996;-85
2022/12/07 19:41:52;;;;;;;;;;;;;;;;;;351029;28;1147;-85
2022/12/07 19:42:03;;;;;;;;;;;;;;;;;;351207;28;1043;-84
2022/12/07 19:42:14;;;;;;;;;;;;;;;;;;351103;28;968;-84
2022/12/07 19:42:24;;;;;;;;;;;;;;;;;;351114;28;1898;-85
2022/12/07 19:42:34;;;;;;;;;;;;;;;;;;351080;28;992;-86
2022/12/07 19:42:44;;;;;;;;;;;;;;;;;;351118;28;913;-86
2022/12/07 19:42:55;;;;;;;;;;;;;;;;;;351105;28;857;-86
2022/12/07 19:43:05;;;;;;;;;;;;;;;;;;351190;28;871;-86
2022/12/07 19:43:15;;;;;;;;;;;;;;;;;;351180;28;1048;-85
2022/12/07 19:43:25;;;;;;;;;;;;;;;;;;351283;28;909;-86
2022/12/07 19:43:35;;;;;;;;;;;;;;;;;;351375;28;802;-86
2022/12/07 19:43:46;;;;;;;;;;;;;;;;;;351353;28;949;-85
2022/12/07 19:43:56;;;;;;;;;;;;;;;;;;351100;28;1004;-85
2022/12/07 19:44:10;;;;;;;;;;;;;;;;;;351477;28;924;-86
2022/12/07 19:44:22;;;;;;;;;;;;;;;;;;351602;28;1023;-86
2022/12/07 19:44:33;;;;;;;;;;;;;;;;;;351785;28;964;-85
2022/12/07 19:44:43;;;;;;;;;;;;;;;;;;351356;28;1101;-86
2022/12/07 19:44:53;;;;;;;;;;;;;;;;;;351299;28;1010;-85
2022/12/07 19:45:04;;;;;;;;;;;;;;;;;;351238;28;1003;-85
2022/12/07 19:45:14;;;;;;;;;;;;;;;;;;351296;28;1190;-86
2022/12/07 19:45:27;;;;;;;;;;;;;;;;;;351811;28;912;-86
2022/12/07 19:45:37;;;;;;;;;;;;;;;;;;351690;28;928;-86
2022/12/07 19:45:48;;;;;;;;;;;;;;;;;;351843;28;1043;-86
2022/12/07 19:46:04;;;;;;;;;;;;;;;;;;351731;28;960;-86
2022/12/07 19:46:15;;;;;;;;;;;;;;;;;;351694;28;956;-87
2022/12/07 19:46:26;;;;;;;;;;;;;;;;;;351355;28;1081;-86
2022/12/07 19:46:37;;;;;;;;;;;;;;;;;;351190;28;948;-86
2022/12/07 19:46:49;;;;;;;;;;;;;;;;;;351209;28;1638;-85
2022/12/07 19:47:00;;;;;;;;;;;;;;;;;;351507;28;1562;-85
2022/12/07 19:47:11;;;;;;;;;;;;;;;;;;351629;28;1495;-86
2022/12/07 19:47:21;;;;;;;;;;;;;;;;;;352515;28;944;-86
2022/12/07 19:47:31;;;;;;;;;;;;;;;;;;351969;28;1249;-86
2022/12/07 19:47:41;;;;;;;;;;;;;;;;;;352119;28;1202;-86
2022/12/07 19:47:52;;;;;;;;;;;;;;;;;;352094;28;1281;-86
2022/12/07 19:48:02;;;;;;;;;;;;;;;;;;352603;28;923;-86
2022/12/07 19:48:12;;;;;;;;;;;;;;;;;;352292;28;1152;-86
2022/12/07 19:48:22;;;;;;;;;;;;;;;;;;352210;28;1038;-86
2022/12/07 19:48:32;;;;;;;;;;;;;;;;;;352232;28;1152;-86
2022/12/07 19:48:43;;;;;;;;;;;;;;;;;;352446;28;892;-85
2022/12/07 19:48:53;;;;;;;;;;;;;;;;;;352334;28;1031;-85
2022/12/07 19:49:04;;;;;;;;;;;;;;;;;;352442;28;928;-86
2022/12/07 19:49:15;;;;;;;;;;;;;;;;;;352564;28;782;-86
2022/12/07 19:49:26;;;;;;;;;;;;;;;;;;352501;28;944;-85
2022/12/07 19:49:36;;;;;;;;;;;;;;;;;;352519;28;857;-86
2022/12/07 19:49:46;;;;;;;;;;;;;;;;;;352548;28;880;-87
2022/12/07 19:49:57;;;;;;;;;;;;;;;;;;352558;28;991;-85
2022/12/07 19:50:08;;;;;;;;;;;;;;;;;;352565;28;916;-85
2022/12/07 19:50:18;;;;;;;;;;;;;;;;;;352554;27;796;-85
2022/12/07 19:50:28;;;;;;;;;;;;;;;;;;352360;28;1002;-86
2022/12/07 19:50:38;;;;;;;;;;;;;;;;;;352548;28;837;-86
2022/12/07 19:50:49;;;;;;;;;;;;;;;;;;352539;28;975;-85
2022/12/07 19:51:03;;;;;;;;;;;;;;;;;;351341;28;1702;-85
2022/12/07 19:51:13;;;;;;;;;;;;;;;;;;351110;28;853;-84
2022/12/07 19:51:23;;;;;;;;;;;;;;;;;;351149;27;932;-85
2022/12/07 19:51:34;;;;;;;;;;;;;;;;;;350941;28;1123;-85
2022/12/07 19:51:45;;;;;;;;;;;;;;;;;;351176;28;937;-86
2022/12/07 19:51:57;;;;;;;;;;;;;;;;;;351098;28;885;-86
2022/12/07 19:52:10;;;;;;;;;;;;;;;;;;351161;28;920;-85
2022/12/07 19:52:20;;;;;;;;;;;;;;;;;;351021;28;1120;-84
2022/12/07 19:52:30;;;;;;;;;;;;;;;;;;351167;27;1011;-86
2022/12/07 19:52:40;;;;;;;;;;;;;;;;;;351132;28;833;-85
2022/12/07 19:52:50;;;;;;;;;;;;;;;;;;351151;28;987;-85
2022/12/07 19:53:01;;;;;;;;;;;;;;;;;;350987;27;936;-85
2022/12/07 19:53:11;;;;;;;;;;;;;;;;;;351153;28;919;-84
2022/12/07 19:53:21;;;;;;;;;;;;;;;;;;351133;28;822;-84
2022/12/07 19:53:32;;;;;;;;;;;;;;;;;;351128;27;975;-85
2022/12/07 19:53:42;;;;;;;;;;;;;;;;;;351167;27;828;-84
2022/12/07 19:53:53;;;;;;;;;;;;;;;;;;351099;27;912;-84
2022/12/07 19:54:04;;;;;;;;;;;;;;;;;;351070;28;932;-84
2022/12/07 19:54:15;;;;;;;;;;;;;;;;;;351074;27;1388;-85
2022/12/07 19:54:27;;;;;;;;;;;;;;;;;;352346;28;1297;-85
2022/12/07 19:54:37;;;;;;;;;;;;;;;;;;350970;27;1609;-84
2022/12/07 19:54:47;;;;;;;;;;;;;;;;;;350997;28;1204;-85
2022/12/07 19:54:57;;;;;;;;;;;;;;;;;;351031;28;781;-85
2022/12/07 19:55:08;;;;;;;;;;;;;;;;;;351017;27;940;-86
2022/12/07 19:55:18;;;;;;;;;;;;;;;;;;351106;28;931;-86
2022/12/07 19:55:28;;;;;;;;;;;;;;;;;;351087;28;901;-86
2022/12/07 19:55:39;;;;;;;;;;;;;;;;;;351124;28;986;-87
2022/12/07 19:55:49;;;;;;;;;;;;;;;;;;351018;28;1058;-85
2022/12/07 19:55:59;;;;;;;;;;;;;;;;;;350959;28;1064;-86
2022/12/07 19:56:17;;;;;;;;;;;;;;;;;;351075;27;928;-86
2022/12/07 19:56:28;;;;;;;;;;;;;;;;;;351104;28;978;-87
2022/12/07 19:56:38;;;;;;;;;;;;;;;;;;351063;28;1097;-85
2022/12/07 19:56:49;;;;;;;;;;;;;;;;;;351138;28;868;-86
2022/12/07 19:56:59;;;;;;;;;;;;;;;;;;351067;28;844;-86
2022/12/07 19:57:13;;;;;;;;;;;;;;;;;;351117;28;844;-86
2022/12/07 19:57:24;;;;;;;;;;;;;;;;;;351061;28;1097;-86
2022/12/07 19:57:34;;;;;;;;;;;;;;;;;;351152;28;974;-86
2022/12/07 19:57:44;;;;;;;;;;;;;;;;;;353668;28;1212;-86
2022/12/07 19:57:54;;;;;;;;;;;;;;;;;;353838;28;916;-86
2022/12/07 19:58:04;;;;;;;;;;;;;;;;;;353808;28;917;-85
2022/12/07 19:58:15;;;;;;;;;;;;;;;;;;353810;28;911;-85
2022/12/07 19:58:25;;;;;;;;;;;;;;;;;;353866;28;876;-86
2022/12/07 19:58:35;;;;;;;;;;;;;;;;;;353868;28;892;-85
2022/12/07 19:58:46;;;;;;;;;;;;;;;;;;353812;28;935;-85
2022/12/07 19:59:00;;;;;;;;;;;;;;;;;;353887;28;908;-85
2022/12/07 19:59:12;;;;;;;;;;;;;;;;;;354038;27;1650;-85
2022/12/07 19:59:26;;;;;;;;;;;;;;;;;;354743;27;1857;-85
2022/12/07 19:59:36;;;;;;;;;;;;;;;;;;352175;28;932;-85
2022/12/07 19:59:47;;;;;;;;;;;;;;;;;;351035;28;856;-86
2022/12/07 19:59:57;;;;;;;;;;;;;;;;;;351092;28;978;-85
2022/12/07 20:00:07;;;;;;;;;;;;;;;;;;350698;28;1585;-85
2022/12/07 20:00:18;;;;;;;;;;;;;;;;;;351021;28;1137;-85
2022/12/07 20:00:28;;;;;;;;;;;;;;;;;;350798;28;1313;-85
2022/12/07 20:00:38;;;;;;;;;;;;;;;;;;351041;28;940;-85
2022/12/07 20:00:49;;;;;;;;;;;;;;;;;;351074;28;829;-86
2022/12/07 20:01:02;;;;;;;;;;;;;;;;;;351058;28;797;-86
2022/12/07 20:01:13;;;;;;;;;;;;;;;;;;350985;28;845;-85
2022/12/07 20:01:23;;;;;;;;;;;;;;;;;;350957;28;924;-86
2022/12/07 20:01:34;;;;;;;;;;;;;;;;;;351101;28;1023;-86
2022/12/07 20:01:44;;;;;;;;;;;;;;;;;;351129;28;893;-86
2022/12/07 20:01:54;;;;;;;;;;;;;;;;;;351122;28;921;-85
2022/12/07 20:02:05;;;;;;;;;;;;;;;;;;351005;28;1126;-86
2022/12/07 20:02:16;;;;;;;;;;;;;;;;;;351106;28;924;-85
2022/12/07 20:02:28;;;;;;;;;;;;;;;;;;350985;28;1914;-86
2022/12/07 20:02:39;;;;;;;;;;;;;;;;;;351139;28;924;-86
2022/12/07 20:02:52;;;;;;;;;;;;;;;;;;351106;28;948;-87
2022/12/07 20:03:02;;;;;;;;;;;;;;;;;;351175;28;1038;-86
2022/12/07 20:03:12;;;;;;;;;;;;;;;;;;350743;28;1331;-84
2022/12/07 20:03:25;;;;;;;;;;;;;;;;;;351189;28;1485;-85
2022/12/07 20:03:38;;;;;;;;;;;;;;;;;;351125;28;932;-85
2022/12/07 20:03:48;;;;;;;;;;;;;;;;;;351150;28;800;-86
2022/12/07 20:03:58;;;;;;;;;;;;;;;;;;353801;28;1002;-86
2022/12/07 20:04:10;;;;;;;;;;;;;;;;;;353807;28;991;-86
2022/12/07 20:04:22;;;;;;;;;;;;;;;;;;353781;28;1126;-86
2022/12/07 20:04:34;;;;;;;;;;;;;;;;;;353756;28;1019;-86
2022/12/07 20:04:44;;;;;;;;;;;;;;;;;;353737;28;936;-85
2022/12/07 20:04:54;;;;;;;;;;;;;;;;;;353832;28;920;-86
2022/12/07 20:05:05;;;;;;;;;;;;;;;;;;353842;28;912;-86
2022/12/07 20:05:15;;;;;;;;;;;;;;;;;;353648;27;1686;-86
2022/12/07 20:05:25;;;;;;;;;;;;;;;;;;355031;27;1770;-86
2022/12/07 20:05:35;;;;;;;;;;;;;;;;;;355279;27;967;-86
2022/12/07 20:05:46;;;;;;;;;;;;;;;;;;355283;27;995;-86
2022/12/07 20:05:56;;;;;;;;;;;;;;;;;;353448;27;933;-86
2022/12/07 20:06:17;;;;;;;;;;;;;;;;;;352540;28;951;-85
2022/12/07 20:06:27;;;;;;;;;;;;;;;;;;352555;28;1065;-84
2022/12/07 20:06:38;;;;;;;;;;;;;;;;;;352131;28;1523;-86
2022/12/07 20:06:49;;;;;;;;;;;;;;;;;;352266;28;837;-85
2022/12/07 20:07:00;;;;;;;;;;;;;;;;;;352511;28;877;-86
2022/12/07 20:07:10;;;;;;;;;;;;;;;;;;352473;27;1019;-85
2022/12/07 20:07:20;;;;;;;;;;;;;;;;;;352453;28;967;-85
2022/12/07 20:07:37;;;;;;;;;;;;;;;;;;352462;28;939;-85
2022/12/07 20:07:47;;;;;;;;;;;;;;;;;;352510;28;916;-85
2022/12/07 20:07:58;;;;;;;;;;;;;;;;;;352498;28;928;-85
2022/12/07 20:08:08;;;;;;;;;;;;;;;;;;352446;28;1067;-84
2022/12/07 20:08:18;;;;;;;;;;;;;;;;;;352488;27;797;-84
2022/12/07 20:08:28;;;;;;;;;;;;;;;;;;352370;28;908;-85
2022/12/07 20:08:39;;;;;;;;;;;;;;;;;;352431;28;829;-86
2022/12/07 20:08:50;;;;;;;;;;;;;;;;;;352331;28;936;-86
2022/12/07 20:09:00;;;;;;;;;;;;;;;;;;352296;27;913;-86
2022/12/07 20:09:10;;;;;;;;;;;;;;;;;;352527;28;844;-87
2022/12/07 20:09:21;;;;;;;;;;;;;;;;;;352558;27;868;-87
2022/12/07 20:09:31;;;;;;;;;;;;;;;;;;352518;27;999;-85
2022/12/07 20:09:41;;;;;;;;;;;;;;;;;;351915;28;1302;-86
2022/12/07 20:09:51;;;;;;;;;;;;;;;;;;352390;28;936;-86
2022/12/07 20:10:02;;;;;;;;;;;;;;;;;;353944;28;1164;-86
2022/12/07 20:10:12;;;;;;;;;;;;;;;;;;353821;28;1118;-87
2022/12/07 20:10:22;;;;;;;;;;;;;;;;;;354000;28;940;-86
2022/12/07 20:10:33;;;;;;;;;;;;;;;;;;353863;28;1072;-86
2022/12/07 20:10:44;;;;;;;;;;;;;;;;;;353847;27;983;-86
2022/12/07 20:10:57;;;;;;;;;;;;;;;;;;353988;28;932;-87
2022/12/07 20:13:31;;;;;;;;;;;;;;;;;;353854;28;897;-85
2022/12/07 20:13:41;;;;;;;;;;;;;;;;;;353968;28;995;-85
2022/12/07 20:13:54;;;;;;;;;;;;;;;;;;352651;28;1688;-86
2022/12/07 20:14:06;;;;;;;;;;;;;;;;;;353921;28;912;-85
2022/12/07 20:14:16;;;;;;;;;;;;;;;;;;353899;28;927;-86
2022/12/07 20:14:27;;;;;;;;;;;;;;;;;;353841;28;973;-87
2022/12/07 20:14:37;;;;;;;;;;;;;;;;;;353910;28;936;-87
2022/12/07 20:14:48;;;;;;;;;;;;;;;;;;353925;27;936;-87
2022/12/07 20:14:58;;;;;;;;;;;;;;;;;;353892;28;991;-86
2022/12/07 20:15:08;;;;;;;;;;;;;;;;;;353940;28;865;-86
2022/12/07 20:15:18;;;;;;;;;;;;;;;;;;352655;28;1516;-86
2022/12/07 20:15:29;;;;;;;;;;;;;;;;;;352496;28;913;-87
2022/12/07 20:15:39;;;;;;;;;;;;;;;;;;352379;28;1010;-86
2022/12/07 20:15:49;;;;;;;;;;;;;;;;;;352487;28;917;-87
2022/12/07 20:16:03;;;;;;;;;;;;;;;;;;352441;28;1011;-87
2022/12/07 20:16:14;;;;;;;;;;;;;;;;;;352545;27;904;-87
2022/12/07 20:16:24;;;;;;;;;;;;;;;;;;352542;27;920;-87
2022/12/07 20:16:34;;;;;;;;;;;;;;;;;;352573;28;975;-87
2022/12/07 20:16:45;;;;;;;;;;;;;;;;;;352502;27;897;-87
2022/12/07 20:16:55;;;;;;;;;;;;;;;;;;352608;27;936;-88
2022/12/07 20:17:05;;;;;;;;;;;;;;;;;;352489;28;920;-87
2022/12/07 20:17:16;;;;;;;;;;;;;;;;;;352532;27;983;-87
2022/12/07 20:17:26;;;;;;;;;;;;;;;;;;352413;28;1114;-87
2022/12/07 20:17:36;;;;;;;;;;;;;;;;;;352597;28;940;-87
2022/12/07 20:17:46;;;;;;;;;;;;;;;;;;352551;27;983;-87
2022/12/07 20:17:56;;;;;;;;;;;;;;;;;;352498;28;1011;-87
2022/12/07 20:18:07;;;;;;;;;;;;;;;;;;352536;27;999;-87
2022/12/07 20:18:17;;;;;;;;;;;;;;;;;;352519;27;868;-87
2022/12/07 20:18:27;;;;;;;;;;;;;;;;;;352479;28;956;-86
2022/12/07 20:18:37;;;;;;;;;;;;;;;;;;352591;28;837;-86
2022/12/07 20:18:48;;;;;;;;;;;;;;;;;;352428;28;945;-86
2022/12/07 20:18:58;;;;;;;;;;;;;;;;;;352519;28;936;-86
2022/12/07 20:19:09;;;;;;;;;;;;;;;;;;352531;28;999;-87
2022/12/07 20:19:19;;;;;;;;;;;;;;;;;;352551;28;905;-86
2022/12/07 20:19:30;;;;;;;;;;;;;;;;;;352496;28;837;-87
2022/12/07 20:19:40;;;;;;;;;;;;;;;;;;352466;28;932;-87
2022/12/07 20:19:50;;;;;;;;;;;;;;;;;;352506;28;904;-86
2022/12/07 20:20:01;;;;;;;;;;;;;;;;;;353038;28;1530;-88
2022/12/07 20:20:11;;;;;;;;;;;;;;;;;;353944;28;968;-88
2022/12/07 20:20:21;;;;;;;;;;;;;;;;;;353897;28;1014;-87
2022/12/07 20:20:31;;;;;;;;;;;;;;;;;;353896;28;1019;-88
2022/12/07 20:20:51;;;;;;;;;;;;;;;;;;353900;28;900;-87
2022/12/07 20:21:01;;;;;;;;;;;;;;;;;;353862;28;964;-86
2022/12/07 20:21:11;;;;;;;;;;;;;;;;;;353178;28;1623;-88
2022/12/07 20:21:21;;;;;;;;;;;;;;;;;;351538;28;1815;-86
2022/12/07 20:21:31;;;;;;;;;;;;;;;;;;351779;28;1750;-86
2022/12/07 20:21:42;;;;;;;;;;;;;;;;;;352354;28;912;-86
2022/12/07 20:21:53;;;;;;;;;;;;;;;;;;352410;28;1693;-86
2022/12/07 20:22:03;;;;;;;;;;;;;;;;;;353764;28;991;-86
2022/12/07 20:22:14;;;;;;;;;;;;;;;;;;352064;28;1699;-86
2022/12/07 20:22:24;;;;;;;;;;;;;;;;;;350924;28;2037;-86
2022/12/07 20:22:35;;;;;;;;;;;;;;;;;;352384;28;1063;-86
2022/12/07 20:22:45;;;;;;;;;;;;;;;;;;352480;28;853;-87
2022/12/07 20:22:55;;;;;;;;;;;;;;;;;;352542;28;924;-87
2022/12/07 20:23:05;;;;;;;;;;;;;;;;;;352416;28;902;-86
2022/12/07 20:23:16;;;;;;;;;;;;;;;;;;352624;28;825;-86
2022/12/07 20:23:27;;;;;;;;;;;;;;;;;;352506;28;916;-86
2022/12/07 20:23:37;;;;;;;;;;;;;;;;;;352459;28;929;-85
2022/12/07 20:23:47;;;;;;;;;;;;;;;;;;352366;28;1142;-86
2022/12/07 20:24:01;;;;;;;;;;;;;;;;;;352548;28;837;-86
2022/12/07 20:24:16;;;;;;;;;;;;;;;;;;352473;27;1621;-85
2022/12/07 20:24:26;;;;;;;;;;;;;;;;;;351127;28;822;-85
2022/12/07 20:24:36;;;;;;;;;;;;;;;;;;351058;28;828;-86
2022/12/07 20:24:46;;;;;;;;;;;;;;;;;;351052;28;979;-86
2022/12/07 20:24:57;;;;;;;;;;;;;;;;;;351099;28;925;-85
2022/12/07 20:25:07;;;;;;;;;;;;;;;;;;351118;28;921;-86
2022/12/07 20:25:18;;;;;;;;;;;;;;;;;;351004;28;920;-85
2022/12/07 20:25:29;;;;;;;;;;;;;;;;;;351120;28;1011;-86
2022/12/07 20:25:39;;;;;;;;;;;;;;;;;;350969;28;991;-85
2022/12/07 20:25:49;;;;;;;;;;;;;;;;;;351102;28;892;-86
2022/12/07 20:26:07;;;;;;;;;;;;;;;;;;351029;28;1027;-84
2022/12/07 20:26:18;;;;;;;;;;;;;;;;;;351599;28;840;-86
2022/12/07 20:26:29;;;;;;;;;;;;;;;;;;351093;28;933;-86
2022/12/07 20:26:39;;;;;;;;;;;;;;;;;;351079;28;1015;-86
2022/12/07 20:26:50;;;;;;;;;;;;;;;;;;351123;27;861;-85
2022/12/07 20:27:00;;;;;;;;;;;;;;;;;;351110;28;1174;-85
2022/12/07 20:27:11;;;;;;;;;;;;;;;;;;351148;28;857;-86
2022/12/07 20:27:21;;;;;;;;;;;;;;;;;;351098;28;956;-86
2022/12/07 20:27:31;;;;;;;;;;;;;;;;;;351135;27;1154;-86
2022/12/07 20:27:41;;;;;;;;;;;;;;;;;;351081;28;912;-87
2022/12/07 20:27:52;;;;;;;;;;;;;;;;;;351121;27;1022;-86
2022/12/07 20:28:02;;;;;;;;;;;;;;;;;;351146;28;813;-86
2022/12/07 20:28:12;;;;;;;;;;;;;;;;;;351099;27;949;-86
2022/12/07 20:28:23;;;;;;;;;;;;;;;;;;351023;28;1039;-87
2022/12/07 20:28:34;;;;;;;;;;;;;;;;;;351111;28;1539;-85
2022/12/07 20:28:45;;;;;;;;;;;;;;;;;;352488;28;905;-85
2022/12/07 20:28:55;;;;;;;;;;;;;;;;;;352442;28;1007;-85
2022/12/07 20:29:09;;;;;;;;;;;;;;;;;;352407;28;989;-85
2022/12/07 20:29:21;;;;;;;;;;;;;;;;;;352454;28;883;-85
2022/12/07 20:29:31;;;;;;;;;;;;;;;;;;352495;28;935;-85
2022/12/07 20:29:41;;;;;;;;;;;;;;;;;;352426;28;908;-87
2022/12/07 20:29:52;;;;;;;;;;;;;;;;;;352374;28;1142;-87
2022/12/07 20:30:02;;;;;;;;;;;;;;;;;;352537;28;971;-86
2022/12/07 20:30:12;;;;;;;;;;;;;;;;;;352461;28;1070;-86
2022/12/07 20:30:23;;;;;;;;;;;;;;;;;;352331;28;1027;-83
2022/12/07 20:30:33;;;;;;;;;;;;;;;;;;352437;28;992;-85
2022/12/07 20:30:46;;;;;;;;;;;;;;;;;;352514;28;798;-85
2022/12/07 20:30:57;;;;;;;;;;;;;;;;;;352539;28;829;-85
2022/12/07 20:31:07;;;;;;;;;;;;;;;;;;352475;28;866;-85
2022/12/07 20:31:17;;;;;;;;;;;;;;;;;;352493;27;960;-86
2022/12/07 20:31:27;;;;;;;;;;;;;;;;;;352471;27;905;-85
2022/12/07 20:31:37;;;;;;;;;;;;;;;;;;352498;28;1003;-87
2022/12/07 20:31:48;;;;;;;;;;;;;;;;;;352450;28;928;-85
2022/12/07 20:31:58;;;;;;;;;;;;;;;;;;352489;27;984;-87
2022/12/07 20:32:10;;;;;;;;;;;;;;;;;;352491;28;876;-86
2022/12/07 20:32:20;;;;;;;;;;;;;;;;;;352372;28;1036;-85
2022/12/07 20:32:30;;;;;;;;;;;;;;;;;;352359;28;916;-86
2022/12/07 20:32:41;;;;;;;;;;;;;;;;;;352532;28;849;-86
2022/12/07 20:32:51;;;;;;;;;;;;;;;;;;352474;28;893;-86
2022/12/07 20:33:01;;;;;;;;;;;;;;;;;;352443;28;983;-86
2022/12/07 20:33:11;;;;;;;;;;;;;;;;;;352419;28;908;-86
2022/12/07 20:33:22;;;;;;;;;;;;;;;;;;355159;27;1208;-86
2022/12/07 20:33:32;;;;;;;;;;;;;;;;;;355323;27;1039;-86
2022/12/07 20:33:46;;;;;;;;;;;;;;;;;;355230;27;1038;-87
2022/12/07 20:33:56;;;;;;;;;;;;;;;;;;354349;27;912;-87
2022/12/07 20:34:06;;;;;;;;;;;;;;;;;;354001;28;916;-86
2022/12/07 20:34:19;;;;;;;;;;;;;;;;;;352595;28;1481;-86
2022/12/07 20:34:29;;;;;;;;;;;;;;;;;;352900;28;817;-85
2022/12/07 20:34:39;;;;;;;;;;;;;;;;;;352789;28;975;-86
2022/12/07 20:34:49;;;;;;;;;;;;;;;;;;352881;28;921;-86
2022/12/07 20:35:00;;;;;;;;;;;;;;;;;;352888;28;813;-86
2022/12/07 20:35:10;;;;;;;;;;;;;;;;;;351380;28;1277;-87
2022/12/07 20:35:20;;;;;;;;;;;;;;;;;;350405;28;948;-85
2022/12/07 20:35:30;;;;;;;;;;;;;;;;;;350155;28;762;-86
2022/12/07 20:35:41;;;;;;;;;;;;;;;;;;350120;28;802;-86
2022/12/07 20:35:52;;;;;;;;;;;;;;;;;;350003;28;976;-86
2022/12/07 20:36:03;;;;;;;;;;;;;;;;;;350062;28;853;-86
2022/12/07 20:36:15;;;;;;;;;;;;;;;;;;350483;28;1185;-86
2022/12/07 20:36:25;;;;;;;;;;;;;;;;;;351379;28;928;-87
2022/12/07 20:36:36;;;;;;;;;;;;;;;;;;351340;28;1136;-86
2022/12/07 20:36:46;;;;;;;;;;;;;;;;;;351531;28;869;-87
2022/12/07 20:36:56;;;;;;;;;;;;;;;;;;351313;28;972;-86
2022/12/07 20:37:09;;;;;;;;;;;;;;;;;;351543;28;1665;-86
2022/12/07 20:37:20;;;;;;;;;;;;;;;;;;351587;28;925;-86
2022/12/07 20:37:30;;;;;;;;;;;;;;;;;;350125;28;1780;-86
2022/12/07 20:37:40;;;;;;;;;;;;;;;;;;350317;28;1065;-86
2022/12/07 20:37:50;;;;;;;;;;;;;;;;;;350298;28;920;-86
2022/12/07 20:38:00;;;;;;;;;;;;;;;;;;350039;28;1250;-85
2022/12/07 20:38:11;;;;;;;;;;;;;;;;;;350069;28;1120;-87
2022/12/07 20:38:21;;;;;;;;;;;;;;;;;;350133;28;852;-85
2022/12/07 20:38:32;;;;;;;;;;;;;;;;;;350074;28;1019;-85
2022/12/07 20:38:43;;;;;;;;;;;;;;;;;;350129;28;988;-87
2022/12/07 20:38:53;;;;;;;;;;;;;;;;;;350042;28;948;-86
2022/12/07 20:39:04;;;;;;;;;;;;;;;;;;350032;28;1131;-86
2022/12/07 20:39:14;;;;;;;;;;;;;;;;;;350095;28;1001;-86
2022/12/07 20:39:25;;;;;;;;;;;;;;;;;;350128;28;909;-86
2022/12/07 20:39:35;;;;;;;;;;;;;;;;;;350131;28;918;-86
2022/12/07 20:39:45;;;;;;;;;;;;;;;;;;350158;28;884;-86
2022/12/07 20:39:55;;;;;;;;;;;;;;;;;;350090;28;929;-86
2022/12/07 20:40:06;;;;;;;;;;;;;;;;;;350138;28;925;-85
2022/12/07 20:40:16;;;;;;;;;;;;;;;;;;350115;28;1016;-85
2022/12/07 20:40:26;;;;;;;;;;;;;;;;;;350124;28;878;-85
2022/12/07 20:40:38;;;;;;;;;;;;;;;;;;350130;28;968;-86
2022/12/07 20:40:48;;;;;;;;;;;;;;;;;;350117;28;1018;-85
2022/12/07 20:41:00;;;;;;;;;;;;;;;;;;349977;28;873;-85
2022/12/07 20:42:38;;;;;;;;;;;;;;;;;;350132;28;980;-86
2022/12/07 20:42:48;;;;;;;;;;;;;;;;;;350090;28;976;-86
2022/12/07 20:42:58;;;;;;;;;;;;;;;;;;350166;28;802;-86
2022/12/07 20:43:09;;;;;;;;;;;;;;;;;;350649;28;998;-87
2022/12/07 20:43:19;;;;;;;;;;;;;;;;;;352633;28;861;-87